Time;durP1;ratioP1;P1;durP2;ratioP2;P2;SDS_P1;SDS_P2;PMS_P1;PMS_P2;Temp;Humidity;BMP_temperature;BMP_pressure;BME280_temperature;BME280_humidity;BME280_pressure;Samples;Min_cycle;Max_cycle;Signal;HPM_P1;HPM_P2
2023/03/03 00:02:00;;;;;;;20.15;10.13;;;;;;;6.59;69.83;100858.66;4949750;29;20563;-76
2023/03/03 00:04:52;;;;;;;12.38;8.18;;;;;;;6.55;70.36;100857.63;4952450;29;20046;-76
2023/03/03 00:07:47;;;;;;;16.02;9.38;;;;;;;6.55;70.13;100860.31;4979360;28;20047;-76
2023/03/03 00:10:40;;;;;;;17.63;10.18;;;;;;;6.45;69.83;100855.78;4963213;28;20535;-75
2023/03/03 00:13:38;;;;;;;12.77;7.80;;;;;;;6.53;69.89;100862.50;4946233;28;20046;-76
2023/03/03 00:16:41;;;;;;;14.27;9.27;;;;;;;6.51;70.24;100864.66;4946838;29;20290;-75
2023/03/03 00:19:41;;;;;;;11.98;7.28;;;;;;;6.49;68.59;100866.84;4946523;29;20612;-76
2023/03/03 00:22:41;;;;;;;15.15;8.70;;;;;;;6.34;70.58;100861.59;4945186;28;20428;-75
2023/03/03 00:25:37;;;;;;;21.67;10.25;;;;;;;6.60;69.33;100857.56;4953273;29;20042;-75
2023/03/03 00:28:27;;;;;;;12.43;8.35;;;;;;;6.34;70.23;100848.09;4965960;28;20054;-75
2023/03/03 00:31:26;;;;;;;14.30;7.95;;;;;;;6.58;70.33;100854.34;4946323;28;20421;-76
2023/03/03 00:34:29;;;;;;;13.50;7.85;;;;;;;6.88;69.92;100862.13;4947445;29;20428;-75
2023/03/03 00:37:41;;;;;;;14.07;8.30;;;;;;;6.79;68.17;100854.94;4952728;28;20055;-76
2023/03/03 00:40:43;;;;;;;13.75;7.82;;;;;;;6.51;69.91;100859.25;4951695;29;20046;-75
2023/03/03 00:43:38;;;;;;;12.93;7.75;;;;;;;6.61;68.88;100851.06;4950149;29;20050;-76
2023/03/03 00:46:30;;;;;;;11.23;6.75;;;;;;;6.34;69.06;100853.47;4951073;29;20055;-76
2023/03/03 00:49:25;;;;;;;12.50;7.57;;;;;;;6.39;70.64;100848.03;4947591;29;20050;-76
2023/03/03 00:52:17;;;;;;;12.18;6.63;;;;;;;6.47;70.41;100850.13;4949532;29;20054;-76
2023/03/03 00:55:12;;;;;;;11.05;6.88;;;;;;;6.57;69.84;100847.31;4944612;29;20431;-76
2023/03/03 00:58:06;;;;;;;14.82;8.40;;;;;;;6.65;69.33;100843.19;4951086;29;20070;-76
2023/03/03 01:01:01;;;;;;;16.70;7.00;;;;;;;6.91;69.10;100841.81;4940732;29;20058;-77
2023/03/03 01:04:04;;;;;;;13.15;7.05;;;;;;;6.26;70.31;100840.56;4954910;29;20055;-76
2023/03/03 01:06:59;;;;;;;12.17;6.83;;;;;;;6.50;70.03;100837.94;4949955;29;20046;-76
2023/03/03 01:09:53;;;;;;;15.68;7.10;;;;;;;6.74;70.28;100842.28;4952025;29;20812;-77
2023/03/03 01:12:47;;;;;;;14.50;8.20;;;;;;;6.73;68.97;100840.66;4950318;29;20535;-76
2023/03/03 01:15:41;;;;;;;;;;;;;;;6.42;69.19;100842.06;4950409;29;20050;-76
2023/03/03 01:18:39;;;;;;;10.07;6.95;;;;;;;6.46;68.76;100840.41;4944233;29;19914;-76
2023/03/03 01:21:33;;;;;;;11.00;6.15;;;;;;;6.42;68.92;100831.25;4951716;29;20046;-76
2023/03/03 01:24:28;;;;;;;14.13;7.30;;;;;;;6.43;69.28;100833.69;4964168;28;20050;-75
2023/03/03 01:27:22;;;;;;;9.68;6.47;;;;;;;6.38;70.63;100827.50;4947069;28;20073;-76
2023/03/03 01:30:17;;;;;;;12.98;5.90;;;;;;;6.53;69.40;100821.97;4966397;28;20038;-76
2023/03/03 01:33:11;;;;;;;11.20;6.60;;;;;;;6.83;69.61;100826.25;4955241;29;20050;-75
2023/03/03 01:36:06;;;;;;;14.30;7.77;;;;;;;6.52;68.62;100820.34;4950236;29;20050;-75
2023/03/03 01:39:01;;;;;;;13.80;6.95;;;;;;;6.68;69.11;100819.09;4953507;28;20539;-75
2023/03/03 01:41:55;;;;;;;11.93;7.03;;;;;;;6.63;68.99;100811.06;4946709;29;20070;-76
2023/03/03 01:44:48;;;;;;;10.35;6.40;;;;;;;6.43;68.44;100808.56;4948758;29;20535;-76
2023/03/03 01:47:44;;;;;;;14.43;7.80;;;;;;;6.64;70.13;100804.56;4943376;29;20050;-76
2023/03/03 01:50:49;;;;;;;11.45;6.38;;;;;;;6.71;68.97;100801.50;4953140;29;20038;-75
2023/03/03 01:53:57;;;;;;;8.20;6.28;;;;;;;6.38;69.09;100800.50;4954637;29;20054;-75
2023/03/03 01:56:52;;;;;;;9.30;5.95;;;;;;;6.61;70.27;100790.81;4953464;28;20058;-75
2023/03/03 01:59:50;;;;;;;8.32;5.18;;;;;;;6.66;69.58;100796.16;4954458;28;20042;-76
2023/03/03 02:02:46;;;;;;;9.60;6.13;;;;;;;6.66;68.42;100786.16;4953460;29;20046;-75
2023/03/03 02:05:38;;;;;;;;;;;;;;;6.46;68.27;100791.78;4956776;28;20515;-76
2023/03/03 02:08:35;;;;;;;12.02;6.75;;;;;;;6.42;68.89;100786.16;4954506;29;19914;-75
2023/03/03 02:11:29;;;;;;;14.48;7.00;;;;;;;6.27;68.85;100783.59;4953560;29;20042;-75
2023/03/03 02:14:22;;;;;;;9.97;5.90;;;;;;;5.86;69.68;100777.72;4953893;28;20424;-76
2023/03/03 02:17:18;;;;;;;12.73;7.45;;;;;;;5.85;69.90;100765.31;4964863;28;20047;-75
2023/03/03 02:20:36;;;;;;;9.25;5.95;;;;;;;6.04;70.41;100778.16;4929008;29;20043;-75
2023/03/03 02:23:53;;;;;;;12.23;7.60;;;;;;;5.69;71.30;100771.91;4934115;29;20178;-75
2023/03/03 02:26:49;;;;;;;16.52;6.65;;;;;;;5.65;71.27;100767.34;4908176;29;20046;-75
2023/03/03 02:29:41;;;;;;;;;;;;;;;5.90;72.18;100762.59;4918121;29;20413;-75
2023/03/03 02:32:35;;;;;;;10.48;5.50;;;;;;;6.07;70.79;100766.78;4937822;29;19915;-76
2023/03/03 02:35:35;;;;;;;12.93;7.20;;;;;;;6.20;70.90;100766.91;4913509;29;20054;-76
2023/03/03 02:38:43;;;;;;;12.75;6.35;;;;;;;5.99;71.18;100765.50;4919384;29;20050;-75
2023/03/03 02:41:59;;;;;;;9.52;5.80;;;;;;;5.64;71.26;100753.06;4933284;29;20529;-76
2023/03/03 02:44:58;;;;;;;13.23;6.25;;;;;;;5.72;71.34;100744.38;4917576;29;20112;-76
2023/03/03 02:47:57;;;;;;;12.65;6.25;;;;;;;6.12;72.06;100751.34;4922587;29;20051;-75
2023/03/03 02:50:49;;;;;;;12.63;6.03;;;;;;;6.28;70.12;100760.91;4921956;29;20524;-74
2023/03/03 02:53:44;;;;;;;11.38;6.35;;;;;;;6.37;70.82;100744.88;4915945;29;20051;-75
2023/03/03 02:56:38;;;;;;;12.43;7.05;;;;;;;6.22;68.93;100745.84;4927180;29;20059;-76
2023/03/03 02:59:33;;;;;;;13.13;6.88;;;;;;;6.11;69.85;100746.22;4919107;29;20047;-76
2023/03/03 03:02:31;;;;;;;10.23;6.72;;;;;;;5.97;71.32;100736.09;4908808;29;20531;-75
2023/03/03 03:05:26;;;;;;;8.10;4.57;;;;;;;6.25;70.94;100730.94;4916504;29;20040;-75
2023/03/03 03:08:19;;;;;;;;;;;;;;;6.35;70.25;100730.84;4910680;29;20047;-76
2023/03/03 03:11:13;;;;;;;14.05;5.95;;;;;;;5.77;69.87;100724.66;4915954;29;19915;-75
2023/03/03 03:14:09;;;;;;;13.63;6.03;;;;;;;6.06;70.71;100727.38;4932436;29;20043;-75
2023/03/03 03:17:01;;;;;;;;;;;;;;;5.45;70.78;100722.47;4922085;28;20042;-76
2023/03/03 03:19:55;;;;;;;10.05;5.50;;;;;;;5.86;72.10;100723.75;4958937;28;19918;-75
2023/03/03 03:22:50;;;;;;;11.27;4.77;;;;;;;5.99;71.52;100716.94;4958069;28;20046;-75
2023/03/03 03:25:48;;;;;;;17.05;5.05;;;;;;;6.08;69.59;100715.22;4984385;28;20826;-75
2023/03/03 03:28:47;;;;;;;13.65;6.75;;;;;;;6.16;70.75;100713.78;4951203;28;20058;-75
2023/03/03 03:31:42;;;;;;;8.77;5.07;;;;;;;6.11;69.61;100714.63;4976892;28;20046;-76
2023/03/03 03:34:36;;;;;;;8.50;5.10;;;;;;;5.81;70.17;100723.78;4956340;28;20526;-75
2023/03/03 03:37:31;;;;;;;11.27;6.60;;;;;;;6.05;69.85;100723.06;4952725;28;20042;-76
2023/03/03 03:40:25;;;;;;;15.70;5.97;;;;;;;5.95;69.20;100715.88;4944688;29;20132;-75
2023/03/03 03:43:20;;;;;;;15.95;7.57;;;;;;;5.85;69.61;100719.44;4965137;28;20556;-76
2023/03/03 03:46:15;;;;;;;8.67;6.07;;;;;;;5.76;70.76;100717.63;4939550;29;20050;-76
2023/03/03 03:49:09;;;;;;;11.57;6.97;;;;;;;5.54;70.65;100710.78;4947142;29;20289;-75
2023/03/03 03:52:02;;;;;;;14.13;7.63;;;;;;;5.71;71.01;100715.78;4945485;29;20046;-75
2023/03/03 03:54:57;;;;;;;10.77;4.78;;;;;;;5.84;70.65;100717.03;4942842;28;20046;-76
2023/03/03 03:57:51;;;;;;;13.02;8.02;;;;;;;5.98;69.00;100716.13;4952629;28;20046;-76
2023/03/03 04:00:44;;;;;;;11.40;6.47;;;;;;;6.01;67.75;100715.53;4955352;28;20046;-75
2023/03/03 04:03:38;;;;;;;11.15;7.00;;;;;;;5.94;67.46;100714.28;4942480;29;20046;-77
2023/03/03 04:06:35;;;;;;;10.48;6.05;;;;;;;6.07;68.47;100720.88;4967077;28;20050;-75
2023/03/03 04:09:30;;;;;;;12.48;5.35;;;;;;;6.22;69.30;100715.34;4952626;28;20039;-74
2023/03/03 04:12:25;;;;;;;20.20;6.97;;;;;;;6.14;67.66;100713.28;4952870;28;20046;-74
2023/03/03 04:15:19;;;;;;;12.50;8.23;;;;;;;6.26;67.10;100716.38;4978935;28;20050;-74
2023/03/03 04:18:14;;;;;;;13.38;7.03;;;;;;;6.10;66.27;100712.22;4954520;28;20054;-75
2023/03/03 04:21:11;;;;;;;10.40;4.82;;;;;;;5.98;67.66;100710.72;4964574;28;20050;-75
2023/03/03 04:24:06;;;;;;;16.63;6.65;;;;;;;6.09;67.13;100710.63;4965368;28;20523;-74
2023/03/03 04:27:02;;;;;;;13.95;6.97;;;;;;;6.25;67.50;100720.16;4981981;28;20058;-74
2023/03/03 04:29:57;;;;;;;7.63;5.30;;;;;;;5.69;67.31;100707.16;4942550;29;20046;-74
2023/03/03 04:32:52;;;;;;;9.35;6.45;;;;;;;5.58;68.93;100698.38;4969741;28;20054;-74
2023/03/03 04:35:47;;;;;;;6.15;4.28;;;;;;;5.80;68.25;100706.00;4947334;29;20050;-74
2023/03/03 04:38:42;;;;;;;9.97;5.23;;;;;;;5.85;68.31;100705.13;4944010;28;20528;-74
2023/03/03 04:41:34;;;;;;;11.68;6.72;;;;;;;5.91;67.77;100709.44;4952201;28;20528;-74
2023/03/03 04:44:29;;;;;;;12.95;6.60;;;;;;;5.58;68.32;100702.97;4943662;29;20535;-74
2023/03/03 04:47:24;;;;;;;10.68;5.18;;;;;;;5.04;70.92;100703.84;4974521;28;20051;-74
2023/03/03 04:50:18;;;;;;;14.70;6.47;;;;;;;5.42;70.35;100696.88;4963661;28;20524;-74
2023/03/03 04:53:08;;;;;;;11.80;5.63;;;;;;;5.71;70.18;100699.59;4964285;28;20070;-74
2023/03/03 04:56:03;;;;;;;11.27;7.18;;;;;;;5.81;69.25;100698.69;4948339;29;20050;-74
2023/03/03 04:58:58;;;;;;;11.75;6.95;;;;;;;5.78;67.42;100700.09;4944741;28;20046;-74
2023/03/03 05:01:53;;;;;;;7.93;5.33;;;;;;;5.80;67.88;100692.50;4958687;28;20174;-75
2023/03/03 05:04:47;;;;;;;9.25;5.28;;;;;;;5.76;66.93;100696.06;4979017;28;20050;-74
2023/03/03 05:07:42;;;;;;;11.63;6.40;;;;;;;5.60;68.07;100695.38;4952803;28;20051;-75
2023/03/03 05:10:37;;;;;;;10.13;6.82;;;;;;;5.65;68.62;100692.63;4957421;28;20539;-74
2023/03/03 05:13:29;;;;;;;14.32;7.03;;;;;;;5.74;66.54;100695.53;4947750;29;20058;-74
2023/03/03 05:16:21;;;;;;;11.23;6.72;;;;;;;5.78;66.65;100688.50;4946960;28;20050;-74
2023/03/03 05:19:16;;;;;;;9.40;4.93;;;;;;;5.88;66.26;100701.91;4956765;28;20417;-74
2023/03/03 05:22:09;;;;;;;13.10;6.13;;;;;;;5.55;67.38;100692.72;4948922;29;20826;-74
2023/03/03 05:25:03;;;;;;;9.85;5.93;;;;;;;5.81;67.88;100693.31;4962957;28;20046;-74
2023/03/03 05:27:58;;;;;;;11.18;6.53;;;;;;;5.62;69.15;100689.69;4945529;29;20058;-74
2023/03/03 05:30:52;;;;;;;10.43;5.72;;;;;;;5.51;69.03;100692.47;4949866;29;20409;-74
2023/03/03 05:33:47;;;;;;;11.55;7.30;;;;;;;5.69;68.06;100696.38;4960327;28;20054;-74
2023/03/03 05:36:41;;;;;;;11.48;7.18;;;;;;;5.83;67.21;100691.94;4975568;28;20062;-74
2023/03/03 05:39:33;;;;;;;9.18;6.18;;;;;;;5.31;68.16;100697.22;4955317;28;20101;-74
2023/03/03 05:42:28;;;;;;;10.95;6.57;;;;;;;5.56;69.48;100702.41;4952042;29;20046;-74
2023/03/03 05:45:23;;;;;;;9.45;5.93;;;;;;;5.78;68.67;100704.69;4952466;29;20046;-74
2023/03/03 05:48:17;;;;;;;10.40;5.70;;;;;;;5.47;68.68;100702.22;4948260;29;20058;-74
2023/03/03 05:51:07;;;;;;;16.95;6.35;;;;;;;4.69;69.27;100702.16;4951290;29;20050;-74
2023/03/03 05:54:01;;;;;;;11.80;6.10;;;;;;;5.14;69.45;100711.06;4947373;29;20429;-74
2023/03/03 05:56:56;;;;;;;10.00;6.22;;;;;;;5.00;69.08;100716.28;4952823;28;20408;-74
2023/03/03 05:59:48;;;;;;;13.55;6.57;;;;;;;5.04;69.26;100711.94;4965638;28;20043;-74
2023/03/03 06:02:43;;;;;;;12.23;5.67;;;;;;;5.30;68.16;100722.56;4953691;28;20539;-74
2023/03/03 06:05:37;;;;;;;10.57;5.28;;;;;;;5.37;67.89;100723.88;4947640;28;20078;-74
2023/03/03 06:08:32;;;;;;;8.87;5.53;;;;;;;5.73;66.78;100724.41;4952496;29;20042;-74
2023/03/03 06:11:24;;;;;;;12.02;7.15;;;;;;;5.61;67.03;100715.88;4951607;28;20400;-75
2023/03/03 06:14:18;;;;;;;12.13;6.65;;;;;;;5.41;67.66;100729.50;4941839;28;20054;-74
2023/03/03 06:17:10;;;;;;;11.32;7.18;;;;;;;5.77;67.04;100728.16;4954226;28;20401;-74
2023/03/03 06:20:05;;;;;;;12.60;7.65;;;;;;;5.99;66.46;100733.91;4936639;29;20046;-74
2023/03/03 06:22:59;;;;;;;9.65;6.63;;;;;;;6.27;67.30;100734.19;4929523;29;20421;-74
2023/03/03 06:25:54;;;;;;;15.90;5.95;;;;;;;6.90;65.62;100732.09;4939121;29;20054;-75
2023/03/03 06:28:49;;;;;;;10.90;6.15;;;;;;;7.40;65.24;100732.50;4917633;29;20050;-75
2023/03/03 06:31:43;;;;;;;15.67;8.30;;;;;;;7.44;60.77;100737.03;4933998;29;20058;-75
2023/03/03 06:34:37;;;;;;;26.55;13.77;;;;;;;7.99;58.92;100729.09;4905807;29;20063;-75
2023/03/03 06:37:32;;;;;;;22.92;13.48;;;;;;;8.44;58.17;100731.00;4934559;29;20047;-75
2023/03/03 06:40:27;;;;;;;25.13;14.70;;;;;;;9.20;56.49;100734.03;4922445;29;20047;-75
2023/03/03 06:43:21;;;;;;;24.83;14.80;;;;;;;10.44;52.74;100737.78;4919608;29;20519;-75
2023/03/03 06:46:16;;;;;;;28.27;16.08;;;;;;;11.05;51.42;100748.53;4936575;29;20047;-75
2023/03/03 06:49:11;;;;;;;16.20;9.23;;;;;;;11.32;49.50;100743.94;4913087;29;20047;-74
2023/03/03 06:52:11;;;;;;;13.10;8.38;;;;;;;8.84;56.84;100742.13;4943301;28;20413;-75
2023/03/03 06:55:11;;;;;;;15.90;9.63;;;;;;;8.23;59.46;100745.97;4922334;29;20047;-75
2023/03/03 06:58:04;;;;;;;21.95;11.20;;;;;;;7.62;62.05;100738.09;4922045;29;20051;-75
2023/03/03 07:01:13;;;;;;;15.50;10.00;;;;;;;7.82;62.57;100747.81;4927750;29;20043;-75
2023/03/03 07:04:11;;;;;;;21.83;11.02;;;;;;;7.52;63.50;100752.56;4920480;29;20043;-75
2023/03/03 07:07:12;;;;;;;13.68;7.88;;;;;;;7.70;64.52;100759.09;4921026;29;20420;-74
2023/03/03 07:10:08;;;;;;;19.02;7.93;;;;;;;8.11;63.32;100754.59;4916597;29;20524;-74
2023/03/03 07:13:07;;;;;;;15.38;7.68;;;;;;;8.20;63.84;100759.31;4913183;29;20516;-75
2023/03/03 07:16:04;;;;;;;15.07;8.05;;;;;;;8.36;63.31;100758.78;4923425;29;20043;-74
2023/03/03 07:18:59;;;;;;;15.20;8.23;;;;;;;8.28;63.56;100759.44;4946968;28;20046;-75
2023/03/03 07:21:51;;;;;;;;;;;;;;;8.13;64.57;100765.13;4952676;28;20054;-74
2023/03/03 07:24:47;;;;;;;15.07;8.07;;;;;;;8.67;63.06;100763.63;4945591;29;20304;-74
2023/03/03 07:27:39;;;;;;;;;;;;;;;9.01;61.53;100769.44;4947560;28;20050;-74
2023/03/03 07:30:33;;;;;;;22.00;9.90;;;;;;;9.24;60.87;100776.53;4947583;29;19922;-74
2023/03/03 07:33:33;;;;;;;16.75;9.75;;;;;;;9.08;62.11;100779.88;4953883;28;20046;-75
2023/03/03 07:36:29;;;;;;;17.38;8.23;;;;;;;9.36;61.51;100782.22;4945560;29;20070;-74
2023/03/03 07:39:44;;;;;;;18.27;8.20;;;;;;;9.50;60.24;100768.63;4955005;28;20066;-75
2023/03/03 07:42:43;;;;;;;18.70;7.82;;;;;;;9.78;59.73;100767.41;4963804;28;20527;-74
2023/03/03 07:45:49;;;;;;;23.08;7.88;;;;;;;9.97;59.67;100769.13;4941613;29;20527;-74
2023/03/03 07:48:45;;;;;;;20.43;8.03;;;;;;;10.29;58.15;100774.31;4954417;28;20054;-74
2023/03/03 07:51:41;;;;;;;15.52;7.78;;;;;;;10.09;57.95;100772.09;4949812;29;20034;-74
2023/03/03 07:54:45;;;;;;;11.65;6.70;;;;;;;10.03;59.26;100785.00;4945393;29;20536;-74
2023/03/03 07:57:42;;;;;;;13.18;6.88;;;;;;;10.07;58.75;100785.97;4953588;29;20062;-74
2023/03/03 08:00:44;;;;;;;12.45;7.68;;;;;;;10.48;57.65;100784.97;4945687;29;20555;-74
2023/03/03 08:03:39;;;;;;;11.13;6.72;;;;;;;10.59;56.65;100780.88;4951749;29;20151;-74
2023/03/03 08:06:47;;;;;;;14.00;7.00;;;;;;;10.78;56.52;100792.28;4939761;29;20054;-74
2023/03/03 08:09:47;;;;;;;9.90;6.18;;;;;;;10.72;55.91;100790.81;4947258;29;20543;-74
2023/03/03 08:12:46;;;;;;;13.30;7.88;;;;;;;10.87;55.89;100792.34;4942392;29;20046;-74
2023/03/03 08:15:40;;;;;;;14.00;7.80;;;;;;;11.19;55.32;100793.84;4949637;29;20416;-74
2023/03/03 08:18:38;;;;;;;15.88;7.38;;;;;;;10.99;55.86;100796.06;4951393;28;20514;-74
2023/03/03 08:21:34;;;;;;;15.75;7.38;;;;;;;10.65;57.14;100801.38;4938193;29;20050;-74
2023/03/03 08:24:29;;;;;;;13.63;7.72;;;;;;;10.96;55.97;100796.69;4944550;28;20050;-74
2023/03/03 08:27:23;;;;;;;101.72;14.57;;;;;;;11.25;55.57;100801.56;4955895;28;20046;-74
2023/03/03 08:30:18;;;;;;;13.85;6.63;;;;;;;11.62;54.89;100810.25;4944661;29;20043;-75
2023/03/03 08:33:12;;;;;;;11.10;5.50;;;;;;;11.34;55.11;100804.28;4946396;29;20046;-74
2023/03/03 08:36:08;;;;;;;10.47;5.30;;;;;;;11.87;53.61;100810.28;4948749;29;20055;-74
2023/03/03 08:39:00;;;;;;;15.82;7.75;;;;;;;11.69;53.58;100805.94;4949347;28;20059;-74
2023/03/03 08:41:54;;;;;;;12.23;6.43;;;;;;;11.33;54.84;100798.03;4938264;29;20054;-74
2023/03/03 08:44:49;;;;;;;14.48;7.72;;;;;;;11.69;54.40;100803.19;4952445;29;20523;-74
2023/03/03 08:47:43;;;;;;;11.20;6.40;;;;;;;11.79;54.16;100805.63;4947407;28;20063;-76
2023/03/03 08:50:38;;;;;;;12.23;6.70;;;;;;;12.12;52.81;100803.22;4944440;29;20404;-75
2023/03/03 08:53:33;;;;;;;23.45;9.05;;;;;;;12.38;52.66;100798.50;4955848;28;20058;-75
2023/03/03 08:56:27;;;;;;;8.77;5.82;;;;;;;12.26;52.60;100801.09;4945299;29;20047;-75
2023/03/03 08:59:22;;;;;;;14.20;6.50;;;;;;;12.33;53.24;100800.59;4952655;28;20050;-76
2023/03/03 09:02:16;;;;;;;14.18;6.85;;;;;;;12.64;53.30;100795.72;4940951;29;20043;-76
2023/03/03 09:05:11;;;;;;;13.32;6.55;;;;;;;13.01;51.35;100804.19;4934227;29;20046;-75
2023/03/03 09:08:04;;;;;;;14.57;6.57;;;;;;;12.86;50.75;100809.06;4947554;28;20050;-75
2023/03/03 09:10:59;;;;;;;12.20;8.30;;;;;;;13.25;50.60;100807.16;4949469;29;20270;-76
2023/03/03 09:13:55;;;;;;;13.47;6.40;;;;;;;13.31;49.75;100805.81;4951523;28;20046;-76
2023/03/03 09:16:55;;;;;;;14.75;6.65;;;;;;;13.24;50.19;100805.56;4944190;29;20043;-76
2023/03/03 09:19:50;;;;;;;16.45;7.68;;;;;;;13.24;50.67;100808.28;4952017;29;20059;-77
2023/03/03 09:22:42;;;;;;;10.17;5.73;;;;;;;13.24;51.34;100806.34;4933506;29;20059;-77
2023/03/03 09:25:40;;;;;;;13.32;6.85;;;;;;;13.62;50.35;100806.25;4945542;29;20051;-76
2023/03/03 09:28:35;;;;;;;13.55;6.53;;;;;;;13.93;49.15;100807.75;4953714;28;20054;-76
2023/03/03 09:31:33;;;;;;;11.63;6.70;;;;;;;13.86;48.63;100807.50;4951935;29;20042;-76
2023/03/03 09:34:38;;;;;;;15.25;6.88;;;;;;;14.03;48.84;100816.34;4949393;29;20050;-76
2023/03/03 09:37:39;;;;;;;20.35;6.78;;;;;;;14.00;48.54;100819.75;4944925;29;20054;-77
2023/03/03 09:40:46;;;;;;;13.75;6.65;;;;;;;14.46;47.57;100810.50;4950060;29;20370;-76
2023/03/03 09:43:57;;;;;;;11.32;5.93;;;;;;;14.11;47.98;100815.50;4942685;29;20062;-76
2023/03/03 09:47:28;;;;;;;14.65;6.97;;;;;;;14.40;48.23;100803.63;4947671;28;20054;-77
2023/03/03 09:50:50;;;;;;;20.70;7.63;;;;;;;14.82;47.77;100811.69;4884892;29;20051;-76
2023/03/03 09:54:07;;;;;;;12.95;6.65;;;;;;;14.61;47.22;100813.69;4969231;28;20209;-76
2023/03/03 09:57:12;;;;;;;14.02;6.70;;;;;;;14.41;47.79;100810.69;4944819;29;20042;-77
2023/03/03 10:00:22;;;;;;;15.02;5.82;;;;;;;14.33;48.49;100816.22;4941296;29;20054;-76
2023/03/03 10:03:53;;;;;;;13.55;6.45;;;;;;;14.71;46.89;100805.84;4964413;28;20073;-77
2023/03/03 10:07:04;;;;;;;17.27;6.32;;;;;;;14.83;46.96;100818.75;4949917;28;20531;-77
2023/03/03 10:10:14;;;;;;;13.48;6.43;;;;;;;14.99;46.23;100812.25;4956726;28;20035;-77
2023/03/03 10:13:19;;;;;;;11.20;6.68;;;;;;;14.78;47.29;100817.03;4961048;28;20417;-78
2023/03/03 10:16:30;;;;;;;;;;;;;;;16.48;45.56;100815.84;4957424;28;20046;-79
2023/03/03 10:19:33;;;;;;;;;;;;;;;16.52;43.74;100817.53;4953450;29;20062;-76
2023/03/03 10:22:35;;;;;;;;;;;;;;;15.05;44.81;100799.13;4987276;28;19918;-78
2023/03/03 10:25:34;;;;;;;;;;;;;;;15.01;45.55;100819.31;4948854;29;19914;-78
2023/03/03 10:28:45;;;;;;;;;;;;;;;15.13;45.24;100817.41;4951122;28;19915;-77
2023/03/03 10:31:42;;;;;;;;;;;;;;;14.86;46.07;100823.53;4945161;29;19915;-77
2023/03/03 10:35:02;;;;;;;15.13;7.73;;;;;;;15.60;45.38;100823.16;4951368;29;20404;-77
2023/03/03 10:38:10;;;;;;;15.68;6.95;;;;;;;15.51;45.25;100821.69;4952563;28;20799;-76
2023/03/03 10:41:26;;;;;;;12.07;6.22;;;;;;;15.35;45.79;100824.31;4961906;28;20448;-78
2023/03/03 10:44:55;;;;;;;12.50;6.63;;;;;;;15.55;44.59;100825.34;4953679;28;20412;-77
2023/03/03 10:48:23;;;;;;;12.25;7.00;;;;;;;16.27;43.57;100819.63;4945758;29;20051;-77
2023/03/03 10:51:33;;;;;;;16.67;6.93;;;;;;;16.60;42.25;100824.84;4952977;28;20042;-78
2023/03/03 10:54:47;;;;;;;15.88;6.90;;;;;;;16.55;42.74;100818.78;4953634;28;20070;-78
2023/03/03 10:58:03;;;;;;;12.18;5.97;;;;;;;15.73;42.91;100821.22;4952036;28;20321;-77
2023/03/03 11:01:15;;;;;;;8.60;4.53;;;;;;;16.16;42.52;100829.50;4944623;29;20042;-78
2023/03/03 11:04:43;;;;;;;14.57;8.18;;;;;;;16.29;42.16;100824.75;4953313;29;20054;-77
2023/03/03 11:08:02;;;;;;;11.02;7.05;;;;;;;15.67;41.24;100822.59;4947931;28;20509;-77
2023/03/03 11:11:26;;;;;;;11.23;6.68;;;;;;;15.68;40.64;100821.44;4957051;28;20066;-78
2023/03/03 11:14:31;;;;;;;16.95;7.25;;;;;;;15.40;41.80;100821.34;4962345;28;20055;-78
2023/03/03 11:17:36;;;;;;;12.15;6.57;;;;;;;15.60;42.05;100814.13;4951178;28;20058;-78
2023/03/03 11:20:47;;;;;;;9.50;6.22;;;;;;;15.44;42.06;100821.47;4932847;29;20050;-78
2023/03/03 11:24:01;;;;;;;17.20;6.90;;;;;;;15.88;41.06;100820.47;4968779;28;20054;-77
2023/03/03 11:27:20;;;;;;;11.60;6.47;;;;;;;15.86;39.68;100813.72;4954367;29;20523;-78
2023/03/03 11:30:34;;;;;;;14.07;7.03;;;;;;;16.06;39.66;100815.47;4948296;29;20070;-77
2023/03/03 11:34:25;;;;;;;12.40;7.35;;;;;;;16.36;39.59;100810.41;4951192;29;20046;-77
2023/03/03 11:37:45;;;;;;;12.70;7.25;;;;;;;16.40;39.74;100808.59;4902394;29;20186;-77
2023/03/03 11:40:47;;;;;;;12.63;7.63;;;;;;;16.62;38.75;100799.75;4911645;29;20035;-78
2023/03/03 11:43:47;;;;;;;17.83;8.55;;;;;;;16.63;38.31;100801.38;4935138;28;20062;-77
2023/03/03 11:47:00;;;;;;;13.18;7.22;;;;;;;16.60;38.43;100793.84;4956514;28;20055;-77
2023/03/03 11:50:10;;;;;;;12.63;7.47;;;;;;;16.98;38.06;100799.50;4942150;28;20070;-78
2023/03/03 11:53:24;;;;;;;17.92;7.53;;;;;;;17.34;36.66;100787.38;4947939;28;20051;-77
2023/03/03 11:56:24;;;;;;;15.45;9.02;;;;;;;17.68;36.14;100791.28;4946791;28;20066;-77
2023/03/03 11:59:38;;;;;;;13.63;7.72;;;;;;;18.43;34.95;100787.22;4943574;28;20076;-77
2023/03/03 12:03:00;;;;;;;13.18;8.18;;;;;;;19.47;33.07;100788.53;4938560;28;20062;-77
2023/03/03 12:06:00;;;;;;;13.63;8.25;;;;;;;18.61;34.14;100780.91;4965821;28;20054;-77
2023/03/03 12:09:17;;;;;;;13.57;8.00;;;;;;;18.54;34.30;100782.75;4958381;28;20058;-79
2023/03/03 12:12:24;;;;;;;12.30;8.00;;;;;;;18.39;34.71;100776.13;4955159;28;20050;-77
2023/03/03 12:15:38;;;;;;;15.20;7.93;;;;;;;18.51;34.72;100778.72;4942007;28;20046;-77
2023/03/03 12:18:46;;;;;;;19.50;8.55;;;;;;;18.53;34.24;100779.16;4951704;28;20050;-78
2023/03/03 12:21:51;;;;;;;16.77;8.07;;;;;;;19.48;33.33;100776.34;4945898;28;20420;-78
2023/03/03 12:24:52;;;;;;;14.38;8.15;;;;;;;19.57;32.79;100782.38;4947201;28;20046;-77
2023/03/03 12:28:07;;;;;;;11.50;7.90;;;;;;;20.13;31.79;100773.97;4951368;28;20050;-78
2023/03/03 12:31:12;;;;;;;14.98;8.05;;;;;;;20.18;32.36;100772.84;4931131;28;20037;-78
2023/03/03 12:34:36;;;;;;;13.55;7.68;;;;;;;21.38;29.62;100784.16;4949800;28;20062;-78
2023/03/03 12:37:59;;;;;;;14.32;7.47;;;;;;;22.38;28.25;100772.28;4953943;28;20051;-78
2023/03/03 12:41:01;;;;;;;14.95;8.00;;;;;;;23.45;27.05;100773.84;4954838;28;20047;-78
2023/03/03 12:44:12;;;;;;;16.10;7.00;;;;;;;23.94;25.45;100772.03;4953202;28;20054;-79
2023/03/03 12:47:47;;;;;;;12.18;7.55;;;;;;;22.59;26.84;100769.53;4940568;28;20943;-79
2023/03/03 12:50:45;;;;;;;14.93;7.10;;;;;;;21.25;29.29;100772.59;4904288;28;20566;-79
2023/03/03 12:53:56;;;;;;;11.80;6.90;;;;;;;23.91;25.60;100768.09;4964320;28;20042;-79
2023/03/03 12:56:56;;;;;;;14.43;7.38;;;;;;;21.28;28.49;100766.31;4961354;28;20527;-78
2023/03/03 13:00:07;;;;;;;12.20;7.70;;;;;;;19.52;31.74;100769.69;4953825;29;20058;-78
2023/03/03 13:03:07;;;;;;;11.88;7.03;;;;;;;18.30;34.38;100767.31;4954473;28;20046;-79
2023/03/03 13:06:09;;;;;;;12.90;6.78;;;;;;;17.98;35.23;100763.19;4955305;28;20046;-79
2023/03/03 13:09:18;;;;;;;13.05;6.75;;;;;;;20.91;30.01;100761.69;4939100;29;20053;-78
2023/03/03 13:12:41;;;;;;;9.38;6.30;;;;;;;21.62;29.34;100764.09;4938865;29;20051;-78
2023/03/03 13:15:38;;;;;;;11.18;6.93;;;;;;;22.45;27.64;100767.50;4950737;28;20054;-80
2023/03/03 13:18:52;;;;;;;9.48;6.00;;;;;;;22.54;27.95;100756.06;4961065;28;20050;-79
2023/03/03 13:22:01;;;;;;;13.48;7.65;;;;;;;21.97;27.73;100761.50;4964425;28;20054;-79
2023/03/03 13:25:04;;;;;;;15.70;7.35;;;;;;;23.15;26.40;100754.84;4955487;28;20054;-79
2023/03/03 13:28:04;;;;;;;12.63;6.57;;;;;;;25.34;23.90;100766.63;4965428;28;20066;-80
2023/03/03 13:31:02;;;;;;;12.77;6.72;;;;;;;26.31;22.55;100769.81;4956533;28;20509;-80
2023/03/03 13:34:01;;;;;;;10.32;6.40;;;;;;;26.21;22.75;100771.47;4955621;28;20042;-80
2023/03/03 13:37:18;;;;;;;9.77;6.20;;;;;;;23.95;24.96;100762.50;4968388;28;20046;-80
2023/03/03 13:40:23;;;;;;;9.80;6.75;;;;;;;24.29;25.54;100763.53;4965320;28;20066;-79
2023/03/03 13:43:36;;;;;;;10.30;6.43;;;;;;;25.03;24.72;100759.38;4961599;28;20054;-80
2023/03/03 13:47:04;;;;;;;9.95;6.32;;;;;;;26.20;22.46;100758.78;4961273;29;20660;-79
2023/03/03 13:50:17;;;;;;;14.23;7.15;;;;;;;25.91;23.06;100757.56;4975352;28;20055;-79
2023/03/03 13:53:46;;;;;;;12.43;6.78;;;;;;;25.26;23.12;100748.41;4958417;28;20038;-79
2023/03/03 13:57:03;;;;;;;7.93;5.82;;;;;;;25.31;23.87;100753.50;4980903;28;20046;-79
2023/03/03 14:00:23;;;;;;;14.82;6.88;;;;;;;23.12;26.36;100746.53;4958349;28;20042;-80
2023/03/03 14:03:42;;;;;;;13.32;7.90;;;;;;;22.20;26.92;100743.75;4962445;28;20050;-79